UPCS205 UAAH-UAKB
Flight info
| Callsign | UPCS205 |
|---|---|
| Flight time | N/A |
| Altitude | 5000 |
| Route | GIREM LUKUS NEMKU 4916N07338E/BEREKESHI UAKK 4943N07318E/KORIDOR1 |
| Aircraft | C414/L-S/N |
Departure
| Time | 2026-05-01 09:54 |
|---|---|
| Airport | Balkhash Airport (UAAH) |
Arrival
| Time | N/A |
|---|---|
| Airport | UAKB |
| Time | Latitude | Longitude | Altitude | Speed | Heading |
|---|---|---|---|---|---|
| 2026-05-01 09:44 | 46.88536 | 75.00112 | 1392 ft | 0 kts | 270° |
| 2026-05-01 09:49 | 46.88536 | 75.00109 | 1392 ft | 1 kts | 269° |
| 2026-05-01 09:49 | 46.88529 | 75.00081 | 1397 ft | 5 kts | 192° |
| 2026-05-01 09:49 | 46.88511 | 75.00105 | 1392 ft | 6 kts | 91° |
| 2026-05-01 09:50 | 46.88537 | 75.00166 | 1381 ft | 11 kts | 0° |
| 2026-05-01 09:50 | 46.88618 | 75.00114 | 1392 ft | 16 kts | 323° |
| 2026-05-01 09:50 | 46.88722 | 75.00003 | 1392 ft | 21 kts | 323° |
| 2026-05-01 09:50 | 46.88858 | 74.99857 | 1395 ft | 27 kts | 323° |
| 2026-05-01 09:51 | 46.88948 | 74.99766 | 1393 ft | 5 kts | 320° |
| 2026-05-01 09:51 | 46.88997 | 74.99707 | 1391 ft | 13 kts | 329° |
| 2026-05-01 09:51 | 46.89071 | 74.99797 | 1392 ft | 18 kts | 52° |
| 2026-05-01 09:51 | 46.89162 | 74.99964 | 1404 ft | 24 kts | 53° |
| 2026-05-01 09:52 | 46.89277 | 75.00179 | 1395 ft | 30 kts | 50° |
| 2026-05-01 09:52 | 46.89409 | 75.00424 | 1390 ft | 28 kts | 52° |
| 2026-05-01 09:52 | 46.89507 | 75.00637 | 1391 ft | 19 kts | 64° |
| 2026-05-01 09:52 | 46.89535 | 75.00653 | 1394 ft | 5 kts | 260° |
| 2026-05-01 09:53 | 46.89464 | 75.00524 | 1388 ft | 39 kts | 230° |
| 2026-05-01 09:53 | 46.89195 | 75.00025 | 1398 ft | 84 kts | 232° |
| 2026-05-01 09:53 | 46.88800 | 74.99267 | 1533 ft | 101 kts | 232° |
| 2026-05-01 09:53 | 46.88350 | 74.98473 | 1838 ft | 102 kts | 229° |
| 2026-05-01 09:54 | 46.87996 | 74.97621 | 2167 ft | 100 kts | 266° |
| 2026-05-01 09:54 | 46.88198 | 74.96657 | 2415 ft | 104 kts | 302° |
| 2026-05-01 09:54 | 46.88823 | 74.96086 | 2661 ft | 112 kts | 339° |
| 2026-05-01 09:54 | 46.89573 | 74.95698 | 2884 ft | 119 kts | 335° |
| 2026-05-01 09:55 | 46.90378 | 74.95269 | 3102 ft | 128 kts | 338° |
| 2026-05-01 09:55 | 46.91232 | 74.94834 | 3332 ft | 131 kts | 336° |
| 2026-05-01 09:55 | 46.92104 | 74.94388 | 3569 ft | 135 kts | 338° |
| 2026-05-01 09:55 | 46.93004 | 74.93921 | 3797 ft | 140 kts | 338° |
| 2026-05-01 09:56 | 46.93932 | 74.93439 | 4031 ft | 143 kts | 337° |
| 2026-05-01 09:56 | 46.94877 | 74.92949 | 4251 ft | 144 kts | 338° |
| 2026-05-01 09:56 | 46.95821 | 74.92457 | 4480 ft | 144 kts | 338° |
| 2026-05-01 09:56 | 46.96771 | 74.91962 | 4713 ft | 146 kts | 338° |
| 2026-05-01 09:57 | 46.97740 | 74.91463 | 4916 ft | 149 kts | 337° |
| 2026-05-01 09:57 | 46.98742 | 74.90938 | 4985 ft | 161 kts | 336° |
| 2026-05-01 09:57 | 46.99833 | 74.90365 | 4988 ft | 173 kts | 337° |
| 2026-05-01 09:57 | 47.00995 | 74.89762 | 4995 ft | 181 kts | 338° |
| 2026-05-01 09:58 | 47.02207 | 74.89133 | 4986 ft | 188 kts | 338° |
| 2026-05-01 09:58 | 47.03449 | 74.88488 | 4989 ft | 191 kts | 338° |
| 2026-05-01 09:58 | 47.04713 | 74.87830 | 4978 ft | 194 kts | 339° |
| 2026-05-01 09:58 | 47.05991 | 74.87162 | 4984 ft | 197 kts | 338° |
| 2026-05-01 09:59 | 47.07284 | 74.86485 | 4983 ft | 199 kts | 339° |
| 2026-05-01 09:59 | 47.08590 | 74.85800 | 4984 ft | 200 kts | 338° |
| 2026-05-01 09:59 | 47.09900 | 74.85115 | 4985 ft | 201 kts | 338° |
| 2026-05-01 09:59 | 47.11210 | 74.84431 | 4981 ft | 200 kts | 338° |
| 2026-05-01 10:00 | 47.12519 | 74.83749 | 4983 ft | 200 kts | 338° |
| 2026-05-01 10:00 | 47.13825 | 74.83063 | 4975 ft | 200 kts | 338° |
| 2026-05-01 10:00 | 47.15128 | 74.82378 | 4979 ft | 197 kts | 338° |
| 2026-05-01 10:00 | 47.16402 | 74.81713 | 4976 ft | 193 kts | 338° |
| 2026-05-01 10:01 | 47.17645 | 74.81059 | 4968 ft | 186 kts | 338° |
| 2026-05-01 10:01 | 47.18836 | 74.80439 | 4969 ft | 180 kts | 337° |
| 2026-05-01 10:01 | 47.20003 | 74.79818 | 4960 ft | 178 kts | 338° |
| 2026-05-01 10:01 | 47.21156 | 74.79212 | 4965 ft | 175 kts | 338° |
| 2026-05-01 10:02 | 47.22295 | 74.78616 | 4961 ft | 174 kts | 338° |
| 2026-05-01 10:02 | 47.23427 | 74.78022 | 4960 ft | 173 kts | 338° |
| 2026-05-01 10:02 | 47.24556 | 74.77427 | 4965 ft | 173 kts | 336° |
| 2026-05-01 10:02 | 47.25683 | 74.76833 | 4962 ft | 172 kts | 337° |
| 2026-05-01 10:03 | 47.26807 | 74.76242 | 4962 ft | 172 kts | 338° |
| 2026-05-01 10:03 | 47.27939 | 74.75647 | 4965 ft | 174 kts | 338° |
| 2026-05-01 10:03 | 47.29081 | 74.75041 | 4964 ft | 176 kts | 338° |
| 2026-05-01 10:03 | 47.30227 | 74.74436 | 4960 ft | 175 kts | 338° |
| 2026-05-01 10:04 | 47.31374 | 74.73837 | 4961 ft | 175 kts | 337° |
| 2026-05-01 10:04 | 47.32519 | 74.73229 | 4961 ft | 175 kts | 338° |
| 2026-05-01 10:04 | 47.33667 | 74.72625 | 4962 ft | 176 kts | 337° |
| 2026-05-01 10:04 | 47.34822 | 74.72013 | 4959 ft | 176 kts | 337° |
| 2026-05-01 10:05 | 47.35965 | 74.71411 | 4963 ft | 174 kts | 338° |
| 2026-05-01 10:05 | 47.37109 | 74.70804 | 4963 ft | 175 kts | 338° |
| 2026-05-01 10:05 | 47.38256 | 74.70198 | 4968 ft | 176 kts | 337° |
| 2026-05-01 10:05 | 47.39408 | 74.69587 | 4966 ft | 176 kts | 337° |
| 2026-05-01 10:06 | 47.40563 | 74.68978 | 4966 ft | 177 kts | 337° |
| 2026-05-01 10:06 | 47.41336 | 74.68565 | 4970 ft | 178 kts | 337° |
| 2026-05-01 10:06 | 47.42880 | 74.67753 | 4970 ft | 176 kts | 338° |
| 2026-05-01 10:06 | 47.44023 | 74.67144 | 4968 ft | 174 kts | 337° |
| 2026-05-01 10:07 | 47.44780 | 74.66742 | 4964 ft | 174 kts | 337° |
| 2026-05-01 10:07 | 47.46303 | 74.65934 | 4964 ft | 176 kts | 337° |
| 2026-05-01 10:07 | 47.47430 | 74.65333 | 4969 ft | 177 kts | 338° |
| 2026-05-01 10:07 | 47.48593 | 74.64714 | 4965 ft | 178 kts | 338° |
| 2026-05-01 10:08 | 47.50906 | 74.63490 | 4971 ft | 177 kts | 338° |
| 2026-05-01 10:08 | 47.52060 | 74.62872 | 4966 ft | 176 kts | 338° |
| 2026-05-01 10:08 | 47.53213 | 74.62260 | 4966 ft | 176 kts | 339° |
| 2026-05-01 10:09 | 47.54364 | 74.61646 | 4966 ft | 176 kts | 338° |
| 2026-05-01 10:09 | 47.55505 | 74.61002 | 4967 ft | 175 kts | 338° |
| 2026-05-01 10:09 | 47.56641 | 74.60362 | 4964 ft | 174 kts | 337° |
| 2026-05-01 10:09 | 47.57763 | 74.59733 | 4966 ft | 172 kts | 336° |
| 2026-05-01 10:10 | 47.58878 | 74.59107 | 4960 ft | 172 kts | 338° |
| 2026-05-01 10:10 | 47.59995 | 74.58482 | 4961 ft | 172 kts | 336° |
| 2026-05-01 10:10 | 47.62242 | 74.57222 | 4964 ft | 174 kts | 337° |
| 2026-05-01 10:11 | 47.63377 | 74.56584 | 4964 ft | 175 kts | 337° |
| 2026-05-01 10:11 | 47.64134 | 74.56162 | 4967 ft | 175 kts | 336° |
| 2026-05-01 10:11 | 47.65650 | 74.55309 | 4968 ft | 175 kts | 336° |
| 2026-05-01 10:11 | 47.66405 | 74.54885 | 4968 ft | 175 kts | 336° |
| 2026-05-01 10:12 | 47.67922 | 74.54033 | 4965 ft | 175 kts | 337° |
| 2026-05-01 10:12 | 47.68681 | 74.53605 | 4964 ft | 176 kts | 337° |
| 2026-05-01 10:12 | 47.71322 | 74.52121 | 4965 ft | 176 kts | 337° |
| 2026-05-01 10:13 | 47.72466 | 74.51476 | 4962 ft | 176 kts | 337° |
| 2026-05-01 10:13 | 47.73605 | 74.50832 | 4963 ft | 175 kts | 337° |
| 2026-05-01 10:13 | 47.74743 | 74.50193 | 4962 ft | 175 kts | 337° |
| 2026-05-01 10:14 | 47.77008 | 74.48915 | 4959 ft | 175 kts | 338° |
| 2026-05-01 10:14 | 47.77762 | 74.48490 | 4959 ft | 174 kts | 336° |
| 2026-05-01 10:14 | 47.78890 | 74.47853 | 4960 ft | 174 kts | 338° |
| 2026-05-01 10:14 | 47.80016 | 74.47217 | 4958 ft | 173 kts | 337° |
| 2026-05-01 10:15 | 47.81142 | 74.46579 | 4960 ft | 174 kts | 338° |
| 2026-05-01 10:15 | 47.82651 | 74.45727 | 4964 ft | 175 kts | 338° |
| 2026-05-01 10:15 | 47.83792 | 74.45079 | 4962 ft | 176 kts | 336° |
| 2026-05-01 10:15 | 47.84934 | 74.44436 | 4965 ft | 176 kts | 337° |
| 2026-05-01 10:16 | 47.86080 | 74.43785 | 4962 ft | 176 kts | 336° |
| 2026-05-01 10:16 | 47.87216 | 74.43142 | 4961 ft | 175 kts | 337° |
| 2026-05-01 10:16 | 47.89491 | 74.41851 | 4960 ft | 175 kts | 336° |
| 2026-05-01 10:17 | 47.90626 | 74.41211 | 4965 ft | 175 kts | 336° |
| 2026-05-01 10:17 | 47.92533 | 74.40124 | 4964 ft | 177 kts | 336° |
| 2026-05-01 10:17 | 47.94068 | 74.39254 | 4967 ft | 177 kts | 336° |
| 2026-05-01 10:18 | 47.96353 | 74.37953 | 4962 ft | 175 kts | 337° |
| 2026-05-01 10:18 | 47.97494 | 74.37304 | 4960 ft | 176 kts | 337° |
| 2026-05-01 10:18 | 47.98630 | 74.36662 | 4962 ft | 176 kts | 337° |
| 2026-05-01 10:19 | 47.99771 | 74.36011 | 4953 ft | 175 kts | 338° |
| 2026-05-01 10:19 | 48.00902 | 74.35382 | 4955 ft | 172 kts | 337° |
| 2026-05-01 10:19 | 48.02015 | 74.34736 | 4961 ft | 172 kts | 335° |
| 2026-05-01 10:20 | 48.04248 | 74.33450 | 4963 ft | 172 kts | 338° |
| 2026-05-01 10:20 | 48.04997 | 74.33027 | 4960 ft | 172 kts | 337° |
| 2026-05-01 10:20 | 48.06480 | 74.32178 | 4961 ft | 172 kts | 336° |
| 2026-05-01 10:20 | 48.07592 | 74.31544 | 4959 ft | 171 kts | 338° |
| 2026-05-01 10:21 | 48.08705 | 74.30908 | 4958 ft | 171 kts | 337° |
| 2026-05-01 10:21 | 48.10917 | 74.29645 | 4957 ft | 171 kts | 335° |
| 2026-05-01 10:21 | 48.11655 | 74.29221 | 4963 ft | 171 kts | 338° |
| 2026-05-01 10:22 | 48.13881 | 74.27950 | 4965 ft | 173 kts | 338° |
| 2026-05-01 10:22 | 48.16531 | 74.26453 | 4967 ft | 175 kts | 338° |
| 2026-05-01 10:23 | 48.17678 | 74.25805 | 4964 ft | 177 kts | 337° |
| 2026-05-01 10:23 | 48.19590 | 74.24726 | 4964 ft | 177 kts | 336° |
| 2026-05-01 10:23 | 48.21127 | 74.23854 | 4962 ft | 178 kts | 337° |
| 2026-05-01 10:24 | 48.23044 | 74.22768 | 4962 ft | 177 kts | 338° |
| 2026-05-01 10:24 | 48.25347 | 74.21461 | 4958 ft | 177 kts | 338° |
| 2026-05-01 10:25 | 48.27615 | 74.20170 | 4969 ft | 175 kts | 337° |
| 2026-05-01 10:25 | 48.30250 | 74.18680 | 4962 ft | 171 kts | 337° |
| 2026-05-01 10:26 | 48.30991 | 74.18257 | 4961 ft | 172 kts | 338° |
| 2026-05-01 10:26 | 48.32105 | 74.17620 | 4959 ft | 172 kts | 337° |
| 2026-05-01 10:26 | 48.34362 | 74.16335 | 4962 ft | 176 kts | 336° |
| 2026-05-01 10:27 | 48.36644 | 74.15038 | 4969 ft | 176 kts | 337° |
| 2026-05-01 10:27 | 48.38933 | 74.13728 | 4964 ft | 176 kts | 336° |
| 2026-05-01 10:28 | 48.40070 | 74.13081 | 4966 ft | 175 kts | 337° |
| 2026-05-01 10:28 | 48.42348 | 74.11778 | 4968 ft | 175 kts | 336° |
| 2026-05-01 10:28 | 48.43484 | 74.11131 | 4969 ft | 175 kts | 336° |
| 2026-05-01 10:29 | 48.45784 | 74.09811 | 4966 ft | 179 kts | 336° |
| 2026-05-01 10:29 | 48.46941 | 74.09149 | 4969 ft | 179 kts | 337° |
| 2026-05-01 10:30 | 48.49258 | 74.07825 | 4961 ft | 178 kts | 336° |
| 2026-05-01 10:30 | 48.51568 | 74.06501 | 4966 ft | 177 kts | 337° |
| 2026-05-01 10:31 | 48.53858 | 74.05184 | 4970 ft | 176 kts | 337° |
| 2026-05-01 10:31 | 48.56154 | 74.03864 | 4969 ft | 177 kts | 338° |
| 2026-05-01 10:32 | 48.58440 | 74.02550 | 4966 ft | 177 kts | 337° |
| 2026-05-01 10:32 | 48.59591 | 74.01887 | 4965 ft | 178 kts | 337° |
| 2026-05-01 10:32 | 48.61888 | 74.00569 | 4966 ft | 176 kts | 337° |
| 2026-05-01 10:33 | 48.64143 | 73.99266 | 5067 ft | 172 kts | 336° |
| 2026-05-01 10:33 | 48.66366 | 73.97980 | 5312 ft | 174 kts | 336° |
| 2026-05-01 10:34 | 48.67505 | 73.97319 | 5432 ft | 175 kts | 337° |
| 2026-05-01 10:34 | 48.68649 | 73.96662 | 5553 ft | 177 kts | 337° |
| 2026-05-01 10:34 | 48.69799 | 73.96001 | 5676 ft | 177 kts | 335° |
| 2026-05-01 10:35 | 48.72096 | 73.94668 | 5928 ft | 178 kts | 336° |
| 2026-05-01 10:35 | 48.73247 | 73.94000 | 5998 ft | 179 kts | 336° |
| 2026-05-01 10:35 | 48.74413 | 73.93322 | 5995 ft | 180 kts | 336° |
| 2026-05-01 10:35 | 48.75588 | 73.92648 | 5998 ft | 182 kts | 337° |
| 2026-05-01 10:36 | 48.77953 | 73.91273 | 5997 ft | 183 kts | 337° |
| 2026-05-01 10:36 | 48.79138 | 73.90588 | 5996 ft | 183 kts | 337° |
| 2026-05-01 10:36 | 48.80320 | 73.89895 | 5992 ft | 182 kts | 335° |
| 2026-05-01 10:37 | 48.81497 | 73.89215 | 5999 ft | 181 kts | 337° |
| 2026-05-01 10:37 | 48.83848 | 73.87853 | 6004 ft | 181 kts | 337° |
| 2026-05-01 10:37 | 48.85022 | 73.87170 | 6003 ft | 180 kts | 337° |
| 2026-05-01 10:38 | 48.86194 | 73.86486 | 5998 ft | 181 kts | 336° |
| 2026-05-01 10:38 | 48.87360 | 73.85806 | 6002 ft | 180 kts | 336° |
| 2026-05-01 10:38 | 48.88534 | 73.85117 | 5998 ft | 181 kts | 336° |
| 2026-05-01 10:38 | 48.89710 | 73.84436 | 5999 ft | 182 kts | 336° |
| 2026-05-01 10:39 | 48.90884 | 73.83752 | 6003 ft | 181 kts | 336° |
| 2026-05-01 10:39 | 48.92062 | 73.83061 | 5993 ft | 181 kts | 335° |
| 2026-05-01 10:39 | 48.93237 | 73.82375 | 5992 ft | 182 kts | 336° |
| 2026-05-01 10:39 | 48.94420 | 73.81686 | 5996 ft | 182 kts | 337° |
| 2026-05-01 10:40 | 48.95606 | 73.80996 | 6000 ft | 183 kts | 337° |
| 2026-05-01 10:40 | 48.96793 | 73.80300 | 6001 ft | 184 kts | 336° |
| 2026-05-01 10:40 | 48.97983 | 73.79597 | 5996 ft | 183 kts | 336° |
| 2026-05-01 10:40 | 48.99166 | 73.78914 | 5996 ft | 182 kts | 336° |
| 2026-05-01 10:41 | 49.00351 | 73.78248 | 5994 ft | 182 kts | 337° |
| 2026-05-01 10:41 | 49.01540 | 73.77591 | 6000 ft | 183 kts | 336° |
| 2026-05-01 10:41 | 49.03935 | 73.76234 | 5999 ft | 184 kts | 336° |
| 2026-05-01 10:42 | 49.05137 | 73.75556 | 6001 ft | 185 kts | 338° |
| 2026-05-01 10:42 | 49.06345 | 73.74875 | 5996 ft | 185 kts | 337° |
| 2026-05-01 10:42 | 49.07543 | 73.74195 | 5998 ft | 184 kts | 338° |
| 2026-05-01 10:42 | 49.08736 | 73.73518 | 5995 ft | 183 kts | 337° |
| 2026-05-01 10:43 | 49.09933 | 73.72844 | 5994 ft | 183 kts | 336° |
| 2026-05-01 10:43 | 49.11129 | 73.72166 | 5998 ft | 184 kts | 337° |
| 2026-05-01 10:43 | 49.12332 | 73.71484 | 5998 ft | 185 kts | 336° |
| 2026-05-01 10:43 | 49.13531 | 73.70803 | 6000 ft | 185 kts | 338° |
| 2026-05-01 10:44 | 49.14745 | 73.70114 | 5997 ft | 186 kts | 338° |
| 2026-05-01 10:44 | 49.15942 | 73.69431 | 5995 ft | 183 kts | 338° |
| 2026-05-01 10:44 | 49.17132 | 73.68760 | 5993 ft | 182 kts | 337° |
| 2026-05-01 10:44 | 49.18323 | 73.68086 | 5995 ft | 184 kts | 337° |
| 2026-05-01 10:45 | 49.19517 | 73.67402 | 5993 ft | 183 kts | 337° |
| 2026-05-01 10:45 | 49.20707 | 73.66726 | 5994 ft | 183 kts | 336° |
| 2026-05-01 10:45 | 49.21898 | 73.66049 | 5991 ft | 183 kts | 337° |
| 2026-05-01 10:45 | 49.23092 | 73.65368 | 5992 ft | 183 kts | 336° |
| 2026-05-01 10:46 | 49.24284 | 73.64690 | 5993 ft | 183 kts | 338° |
| 2026-05-01 10:46 | 49.25478 | 73.64011 | 5996 ft | 183 kts | 338° |
| 2026-05-01 10:46 | 49.26677 | 73.63322 | 5921 ft | 187 kts | 334° |
| 2026-05-01 10:46 | 49.27856 | 73.62450 | 5799 ft | 190 kts | 331° |
| 2026-05-01 10:47 | 49.29059 | 73.61579 | 5674 ft | 193 kts | 332° |
| 2026-05-01 10:47 | 49.30273 | 73.60706 | 5560 ft | 194 kts | 333° |
| 2026-05-01 10:47 | 49.31496 | 73.59808 | 5442 ft | 196 kts | 332° |
| 2026-05-01 10:47 | 49.32729 | 73.58904 | 5319 ft | 198 kts | 332° |
| 2026-05-01 10:48 | 49.33975 | 73.57995 | 5199 ft | 199 kts | 332° |
| 2026-05-01 10:48 | 49.35224 | 73.57084 | 5078 ft | 199 kts | 332° |
| 2026-05-01 10:48 | 49.36459 | 73.56169 | 4990 ft | 196 kts | 331° |
| 2026-05-01 10:48 | 49.37668 | 73.55291 | 4985 ft | 190 kts | 332° |
| 2026-05-01 10:49 | 49.38852 | 73.54429 | 4975 ft | 188 kts | 332° |
| 2026-05-01 10:49 | 49.40023 | 73.53567 | 4977 ft | 186 kts | 332° |
| 2026-05-01 10:49 | 49.41182 | 73.52725 | 4979 ft | 183 kts | 332° |
| 2026-05-01 10:49 | 49.42319 | 73.51881 | 4973 ft | 181 kts | 331° |
| 2026-05-01 10:50 | 49.43462 | 73.51027 | 4969 ft | 184 kts | 332° |
| 2026-05-01 10:50 | 49.44616 | 73.50187 | 4964 ft | 184 kts | 332° |
| 2026-05-01 10:50 | 49.45759 | 73.49343 | 4976 ft | 183 kts | 331° |
| 2026-05-01 10:50 | 49.46909 | 73.48503 | 4981 ft | 183 kts | 333° |
| 2026-05-01 10:51 | 49.48060 | 73.47662 | 4980 ft | 184 kts | 332° |
| 2026-05-01 10:51 | 49.49213 | 73.46809 | 4978 ft | 184 kts | 331° |
| 2026-05-01 10:51 | 49.50359 | 73.45962 | 4981 ft | 183 kts | 332° |
| 2026-05-01 10:51 | 49.51501 | 73.45124 | 4977 ft | 182 kts | 332° |
| 2026-05-01 10:52 | 49.53017 | 73.44001 | 4980 ft | 183 kts | 332° |
| 2026-05-01 10:52 | 49.53781 | 73.43441 | 4983 ft | 183 kts | 332° |
| 2026-05-01 10:52 | 49.54936 | 73.42580 | 4987 ft | 186 kts | 332° |
| 2026-05-01 10:52 | 49.56102 | 73.41721 | 4986 ft | 186 kts | 333° |
| 2026-05-01 10:53 | 49.57262 | 73.40867 | 4984 ft | 185 kts | 331° |
| 2026-05-01 10:53 | 49.58422 | 73.40009 | 4985 ft | 186 kts | 332° |
| 2026-05-01 10:53 | 49.59586 | 73.39149 | 4981 ft | 186 kts | 332° |
| 2026-05-01 10:53 | 49.60747 | 73.38288 | 4979 ft | 185 kts | 331° |
| 2026-05-01 10:54 | 49.61908 | 73.37423 | 4874 ft | 187 kts | 332° |
| 2026-05-01 10:54 | 49.63056 | 73.36577 | 4628 ft | 180 kts | 332° |
| 2026-05-01 10:54 | 49.64165 | 73.35760 | 4377 ft | 175 kts | 332° |
| 2026-05-01 10:54 | 49.65254 | 73.34955 | 4126 ft | 173 kts | 331° |
| 2026-05-01 10:55 | 49.66333 | 73.34148 | 3882 ft | 173 kts | 331° |
| 2026-05-01 10:55 | 49.67412 | 73.33331 | 3638 ft | 172 kts | 329° |
| 2026-05-01 10:55 | 49.68549 | 73.32669 | 3292 ft | 178 kts | 336° |
| 2026-05-01 10:55 | 49.69690 | 73.31958 | 3036 ft | 174 kts | 333° |
| 2026-05-01 10:56 | 49.70763 | 73.31257 | 2972 ft | 163 kts | 330° |
| 2026-05-01 10:56 | 49.71800 | 73.30631 | 2928 ft | 157 kts | 335° |
| 2026-05-01 10:56 | 49.72816 | 73.30060 | 2824 ft | 155 kts | 338° |
| 2026-05-01 10:56 | 49.73807 | 73.29561 | 2833 ft | 147 kts | 343° |
| 2026-05-01 10:57 | 49.74808 | 73.29347 | 2750 ft | 143 kts | 356° |
| 2026-05-01 10:57 | 49.75775 | 73.29377 | 2698 ft | 138 kts | 20° |
| 2026-05-01 10:57 | 49.76305 | 73.30461 | 2685 ft | 134 kts | 89° |
| 2026-05-01 10:57 | 49.76332 | 73.31935 | 2636 ft | 139 kts | 92° |
| 2026-05-01 10:58 | 49.76364 | 73.33416 | 2656 ft | 138 kts | 101° |
| 2026-05-01 10:58 | 49.75857 | 73.34434 | 2612 ft | 118 kts | 176° |
| 2026-05-01 10:58 | 49.75063 | 73.34312 | 2411 ft | 109 kts | 192° |
| 2026-05-01 10:58 | 49.74313 | 73.34134 | 2365 ft | 110 kts | 189° |
| 2026-05-01 10:59 | 49.73559 | 73.34016 | 2338 ft | 108 kts | 191° |
| 2026-05-01 10:59 | 49.73108 | 73.33265 | 2108 ft | 115 kts | 268° |
| 2026-05-01 10:59 | 49.73069 | 73.32053 | 2033 ft | 108 kts | 260° |
| 2026-05-01 10:59 | 49.73007 | 73.30945 | 1835 ft | 99 kts | 264° |
| 2026-05-01 11:00 | 49.72976 | 73.30029 | 1787 ft | 56 kts | 266° |
| 2026-05-01 11:00 | 49.72969 | 73.29683 | 1791 ft | 18 kts | 275° |
| 2026-05-01 11:00 | 49.72975 | 73.29562 | 1791 ft | 1 kts | 268° |
| 2026-05-01 11:00 | 49.72965 | 73.29578 | 1791 ft | 4 kts | 81° |
| 2026-05-01 11:01 | 49.72969 | 73.29760 | 1791 ft | 26 kts | 87° |
| 2026-05-01 11:01 | 49.72983 | 73.29979 | 1787 ft | 7 kts | 27° |
| 2026-05-01 11:01 | 49.73041 | 73.29975 | 1788 ft | 10 kts | 354° |
| 2026-05-01 11:01 | 49.73065 | 73.30040 | 1788 ft | 8 kts | 72° |
| 2026-05-01 11:02 | 49.73078 | 73.30029 | 1788 ft | 1 kts | 193° |
| 2026-05-01 11:02 | 49.73076 | 73.30029 | 1788 ft | 0 kts | 179° |